Orbital elements of COSMOS 1275 DEB
| Launched | 3 June 1981 |
| Flight ended | – |
| Launch site | Plesetsk Missile and Space Complex, Russia |
| Owner | Commonwealth of Independent States (former USSR) |
| NORAD ID | 12662 |
| Date fetched |
Epoch osculation |
Inc. [°] |
Ecc. | RA asc node [hr] |
Arg Peri. [°] |
Mean anom [°] |
Mean motion [rev/day] |
Abs. mag |
| Date fetched |
Epoch osculation |
Inc. [°] |
Ecc. | RA asc node [hr] |
Arg Peri. [°] |
Mean anom [°] |
Mean motion [rev/day] |
Abs. mag |
| 2026 May 08 17:57 | 2026 May 05 09:52:00 | 82.9560 | 0.00234 | 16.8791 | 136.3216 | 284.5096 | 13.78184 | – |
| 2026 May 07 17:58 | 2026 May 05 09:52:00 | 82.9560 | 0.00234 | 16.8791 | 136.3216 | 284.5096 | 13.78184 | – |
| 2026 May 06 17:57 | 2026 May 05 09:52:00 | 82.9560 | 0.00234 | 16.8791 | 136.3216 | 284.5096 | 13.78184 | – |
| 2026 May 05 17:57 | 2026 May 05 09:52:00 | 82.9560 | 0.00234 | 16.8791 | 136.3216 | 284.5096 | 13.78184 | – |
| 2026 May 04 17:57 | 2026 Apr 30 11:25:03 | 82.9551 | 0.00231 | 17.1237 | 149.5364 | 284.5096 | 13.78184 | – |
| 2026 May 03 17:57 | 2026 Apr 30 11:25:03 | 82.9551 | 0.00231 | 17.1237 | 149.5364 | 284.5096 | 13.78184 | – |
| 2026 May 02 17:57 | 2026 Apr 30 11:25:03 | 82.9551 | 0.00231 | 17.1237 | 149.5364 | 284.5096 | 13.78184 | – |
| 2026 May 01 17:56 | 2026 Apr 30 11:25:03 | 82.9551 | 0.00231 | 17.1237 | 149.5364 | 284.5096 | 13.78184 | – |
| 2026 Apr 30 17:56 | 2026 Apr 30 11:25:03 | 82.9551 | 0.00231 | 17.1237 | 149.5364 | 284.5096 | 13.78184 | – |
| 2026 Apr 29 17:57 | 2026 Apr 24 10:46:52 | 82.9542 | 0.00227 | 17.4224 | 165.8579 | 284.5096 | 13.78184 | – |
| 2026 Apr 28 17:56 | 2026 Apr 24 10:46:52 | 82.9542 | 0.00227 | 17.4224 | 165.8579 | 284.5096 | 13.78184 | – |
| 2026 Apr 27 17:58 | 2026 Apr 24 10:46:52 | 82.9542 | 0.00227 | 17.4224 | 165.8579 | 284.5096 | 13.78184 | – |
| 2026 Apr 26 17:58 | 2026 Apr 24 10:46:52 | 82.9542 | 0.00227 | 17.4224 | 165.8579 | 284.5096 | 13.78184 | – |
| 2026 Apr 25 17:58 | 2026 Apr 24 10:46:52 | 82.9542 | 0.00227 | 17.4224 | 165.8579 | 284.5096 | 13.78184 | – |
| 2026 Apr 24 17:59 | 2026 Apr 24 10:46:52 | 82.9542 | 0.00227 | 17.4224 | 165.8579 | 284.5096 | 13.78184 | – |
| 2026 Apr 23 17:57 | 2026 Apr 19 12:17:36 | 82.9535 | 0.00224 | 17.6672 | 179.4531 | 284.5096 | 13.78184 | – |
| 2026 Apr 22 17:57 | 2026 Apr 19 12:17:36 | 82.9535 | 0.00224 | 17.6672 | 179.4531 | 284.5096 | 13.78184 | – |
| 2026 Apr 21 17:57 | 2026 Apr 19 12:17:36 | 82.9535 | 0.00224 | 17.6672 | 179.4531 | 284.5096 | 13.78184 | – |
| 2026 Apr 20 17:57 | 2026 Apr 19 12:17:36 | 82.9535 | 0.00224 | 17.6672 | 179.4531 | 284.5096 | 13.78184 | – |
| 2026 Apr 19 17:58 | 2026 Apr 19 12:17:36 | 82.9535 | 0.00224 | 17.6672 | 179.4531 | 284.5096 | 13.78184 | – |
| 2026 Apr 18 17:56 | 2026 Apr 13 05:13:54 | 82.9530 | 0.00219 | 17.9793 | 197.1530 | 284.5096 | 13.78184 | – |
| 2026 Apr 16 17:57 | 2026 Apr 13 05:13:54 | 82.9530 | 0.00219 | 17.9793 | 197.1530 | 284.5096 | 13.78184 | – |
| 2026 Apr 14 17:57 | 2026 Apr 13 05:13:54 | 82.9530 | 0.00219 | 17.9793 | 197.1530 | 284.5096 | 13.78184 | – |
| 2026 Apr 13 17:57 | 2026 Apr 13 05:13:54 | 82.9530 | 0.00219 | 17.9793 | 197.1530 | 284.5096 | 13.78184 | – |
| 2026 Apr 12 17:57 | 2026 Apr 08 11:16:42 | 82.9525 | 0.00216 | 18.2147 | 210.7688 | 284.5096 | 13.78184 | – |
| 2026 Apr 11 17:57 | 2026 Apr 08 11:16:42 | 82.9525 | 0.00216 | 18.2147 | 210.7688 | 284.5096 | 13.78184 | – |